Whitesville, NY

10:48 PM EDT on July 23, 2014 (GMT -0400)
Cattaraugus County-Olean (KOLE) Elev 2136 ft | 42.24 °N, 78.37 °W | Change Station

Current weather conditions updated 13 minutes ago

Overcast
Overcast
59 °F
Feels Like 59 °F
N
6
Wind Variable Wind from North

Tomorrow is forecast to be Cooler than today.

Today
High -- | Low -- °F
--% Chance of Precip.
Yesterday
High -- | Low -- °F
Precip. -- in
5:55 AM 8:38 PM
Waning Crescent, 7% visible
Pressure 30.03 in
Visibility 10.0 miles
Clouds Scattered Clouds 900 ft
Mostly Cloudy 1600 ft
Overcast 3500 ft
Dew Point 59 °F
Humidity 100%
Rainfall 0.00 in
Snow Depth Not available.
UV 0 out of 12
Pollen 5.80 out of 12
Air Quality Not available.
Flu Activity Not available.
METAR KOLE 240235Z AUTO 35005KT 10SM SCT009 BKN016 OVC035 15/15 A3003 RMK AO2

More Conditions Fewer Conditions

Pressure 30.03 in
Visibility 10.0 miles
Clouds Scattered Clouds 900 ft
Mostly Cloudy 1600 ft
Overcast 3500 ft
Dew Point 59 °F
Humidity 100%
Rainfall 0.00 in
Snow Depth Not available.
UV 0 out of 12
Pollen 5.80 out of 12
Air Quality Not available.
Flu Activity Not available.
METAR KOLE 240235Z AUTO 35005KT 10SM SCT009 BKN016 OVC035 15/15 A3003 RMK AO2

More Conditions Fewer Conditions

10-Day Weather Forecast

Almanac

Astronomy

Jul. 23, 2014 Rise Set
Actual Time 5:55 AM EDT 8:38 PM EDT
Civil Twilight 5:23 AM EDT 9:11 PM EDT
Nautical Twilight 4:42 AM EDT 9:52 PM EDT
Astronomical Twilight 3:55 AM EDT 10:38 PM EDT
Moon 3:13 AM EDT (7/23) 6:05 PM EDT (7/23)
Length of Visible Light 15h 48m
Length of Day
14h 43m
Tomorrow will be 1m 51s shorter.
Waning Crescent, 7% of the Moon is Illuminated
Today
Waning Crescent
Jul 26
New
Aug 3
First Quarter
Aug 10
Full
Aug 17
Last Quarter

Today's Extremes

State Highs State Lows

Community

WunderPhotos

Upload Photos

1,736,864 photos uploaded!

Nearby

Air Quality

  Air Quality AQ Index Pollutant
Yesterday Good
OZONE
Wednesday Good
PM2.5
Wednesday Good
OZONE
Thursday Good
OZONE
Thursday Good
PM2.5

Snow Depth

Station Depth Elevation
No new snow has been reported.

Earthquake Activity

City Distance Mag. Time & Date
No recent earthquake activity has been reported nearby.
Minimum magnitude displayed is 2.5.

Coastal Water Temperatures

Place Temperature
No Stations Reporting

Nearby Weather Stations

Station Location Temp. Dew Point Humidity Wind Precip. Elev Updated Type
Ardachy Farm, Alfred Station, NY 60.3 °F 59 °F 97% North  at  3.8 mph 0.00 in / hr 1877 ft 10:47 PM EDT Normal
Academy Corners, Deerfield Township, PA, Knoxville, PA 65.6 °F 60 °F 82% WSW  at  0.0 mph 0.00 in / hr 1224 ft 10:46 PM EDT Rapid Fire
HADS ALMOND LAKE NEAR HORNELL NY, Hornell, NY 64 °F - - North  at  - 0.00 in / hr 1325 ft 10:00 PM EDT MADIS
Jenkins Hill, Coudersport, PA 62.9 °F 61 °F 94% NNE  at  1.0 mph 0.00 in / hr 2150 ft 10:05 PM EDT Normal

Show More Stations Show Fewer Stations